createdAt,value
2019-02-04T00:01:43.571Z,24.95
2019-02-04T00:04:13.007Z,25.62
2019-02-04T00:06:42.433Z,20.40
2019-02-04T00:09:11.915Z,23.15
2019-02-04T00:11:41.432Z,22.30
2019-02-04T00:14:11.175Z,24.52
2019-02-04T00:16:41.363Z,25.68
2019-02-04T00:19:10.926Z,22.85
2019-02-04T00:21:40.381Z,26.75
2019-02-04T00:24:09.840Z,22.75
2019-02-04T00:26:39.587Z,24.65
2019-02-04T00:29:09.086Z,28.05
2019-02-04T00:31:38.536Z,27.22
2019-02-04T00:34:07.993Z,26.65
2019-02-04T00:36:37.448Z,24.10
2019-02-04T00:39:09.281Z,29.65
2019-02-04T00:41:39.274Z,24.05
2019-02-04T00:44:08.746Z,24.80
2019-02-04T00:46:38.187Z,33.63
2019-02-04T00:49:07.635Z,21.57
2019-02-04T00:51:37.162Z,26.17
2019-02-04T00:54:06.602Z,20.20
2019-02-04T00:56:36.349Z,17.70
2019-02-04T00:59:06.339Z,22.20
2019-02-04T01:01:35.902Z,20.45
2019-02-04T01:04:05.492Z,20.68
2019-02-04T01:06:34.953Z,21.23
2019-02-04T01:09:07.799Z,21.90
2019-02-04T01:11:37.242Z,17.92
2019-02-04T01:14:06.677Z,18.80
2019-02-04T01:16:36.159Z,17.23
2019-02-04T01:19:06.021Z,19.73
2019-02-04T01:21:35.464Z,17.48
2019-02-04T01:24:05.296Z,16.20
2019-02-04T01:26:34.746Z,17.57
2019-02-04T01:29:04.307Z,20.02
2019-02-04T01:31:34.630Z,17.27
2019-02-04T01:34:04.089Z,20.25
2019-02-04T01:36:33.555Z,19.12
2019-02-04T01:39:03.024Z,20.85
2019-02-04T01:41:33.323Z,16.70
2019-02-04T01:44:02.967Z,17.12
2019-02-04T01:46:32.544Z,20.72
2019-02-04T01:49:02.014Z,17.17
2019-02-04T01:51:32.097Z,21.05
2019-02-04T01:54:01.551Z,15.45
2019-02-04T01:56:31.397Z,16.93
2019-02-04T01:59:00.858Z,19.37
2019-02-04T02:01:30.317Z,12.40
2019-02-04T02:03:59.770Z,14.85
2019-02-04T02:06:29.264Z,20.35
2019-02-04T02:08:58.721Z,15.63
2019-02-04T02:11:28.174Z,21.97
2019-02-04T02:13:57.629Z,15.13
2019-02-04T02:16:57.176Z,14.13
2019-02-04T02:19:27.217Z,15.13
2019-02-04T02:21:56.668Z,15.85
2019-02-04T02:24:26.127Z,17.92
2019-02-04T02:26:55.971Z,14.58
2019-02-04T02:29:25.432Z,18.05
2019-02-04T02:31:54.874Z,19.85
2019-02-04T02:34:24.375Z,16.87
2019-02-04T02:36:53.793Z,15.45
2019-02-04T02:39:23.293Z,15.85
2019-02-04T02:41:53.063Z,13.98
2019-02-04T02:44:22.507Z,15.95
2019-02-04T02:46:51.953Z,17.02
2019-02-04T02:49:21.402Z,17.02
2019-02-04T02:51:50.868Z,19.95
2019-02-04T02:54:20.608Z,15.85
2019-02-04T02:56:50.329Z,20.48
2019-02-04T02:59:19.770Z,19.87
2019-02-04T03:01:49.215Z,19.10
2019-02-04T03:04:18.994Z,18.55
2019-02-04T03:06:48.437Z,22.70
2019-02-04T03:09:17.882Z,21.42
2019-02-04T03:11:47.812Z,20.62
2019-02-04T03:14:17.263Z,22.40
2019-02-04T03:16:46.711Z,18.82
2019-02-04T03:19:16.180Z,22.00
2019-02-04T03:21:45.631Z,19.85
2019-02-04T03:24:15.500Z,19.73
2019-02-04T03:26:44.960Z,20.45
2019-02-04T03:29:14.401Z,25.23
2019-02-04T03:31:45.958Z,20.85
2019-02-04T03:34:14.939Z,26.25
2019-02-04T03:36:44.429Z,21.25
2019-02-04T03:39:14.358Z,19.32
2019-02-04T03:41:43.802Z,19.73
2019-02-04T03:44:13.445Z,16.23
2019-02-04T03:46:43.051Z,21.73
2019-02-04T03:49:12.493Z,20.37
2019-02-04T03:51:42.244Z,21.70
2019-02-04T03:54:12.060Z,20.68
2019-02-04T03:56:41.505Z,20.37
2019-02-04T03:59:11.479Z,22.20
2019-02-04T04:01:40.919Z,22.42
2019-02-04T04:04:10.352Z,19.17
2019-02-04T04:06:39.847Z,21.65
2019-02-04T04:09:09.310Z,20.57
2019-02-04T04:11:38.781Z,18.98
2019-02-04T04:14:08.233Z,17.23
2019-02-04T04:16:37.689Z,22.37
2019-02-04T04:19:07.172Z,21.10
2019-02-04T04:21:36.622Z,20.10
2019-02-04T04:24:06.122Z,17.30
2019-02-04T04:26:35.567Z,16.05
2019-02-04T04:29:05.040Z,16.10
2019-02-04T04:31:34.497Z,25.30
2019-02-04T04:34:04.350Z,21.30
2019-02-04T04:36:33.814Z,18.20
2019-02-04T04:39:04.901Z,24.72
2019-02-04T04:41:34.402Z,26.50
2019-02-04T04:44:04.736Z,23.07
2019-02-04T04:46:34.625Z,24.25
2019-02-04T04:49:04.168Z,26.45
2019-02-04T04:51:35.171Z,23.80
2019-02-04T04:54:05.291Z,25.48
2019-02-04T04:56:34.737Z,26.30
2019-02-04T04:59:04.348Z,29.00
2019-02-04T05:01:34.182Z,25.68
2019-02-04T05:04:04.250Z,28.80
2019-02-04T05:06:33.717Z,22.82
2019-02-04T05:09:05.126Z,30.25
2019-02-04T05:11:34.617Z,29.77
2019-02-04T05:14:04.054Z,27.70
2019-02-04T05:16:33.519Z,26.62
2019-02-04T05:19:03.121Z,28.32
2019-02-04T05:21:32.606Z,32.35
2019-02-04T05:24:02.114Z,35.35
2019-02-04T05:26:31.938Z,33.33
2019-02-04T05:29:02.398Z,30.92
2019-02-04T05:31:31.863Z,30.32
2019-02-04T05:34:01.305Z,29.40
2019-02-04T05:36:30.750Z,36.03
2019-02-04T05:39:00.240Z,34.23
2019-02-04T05:41:29.669Z,32.80
2019-02-04T05:43:59.429Z,34.78
2019-02-04T05:46:28.935Z,40.08
2019-02-04T05:48:58.815Z,37.35
2019-02-04T05:51:28.269Z,35.05
2019-02-04T05:53:57.728Z,38.02
2019-02-04T05:56:27.528Z,39.18
2019-02-04T05:58:56.998Z,44.55
2019-02-04T06:01:26.455Z,38.28
2019-02-04T06:03:55.908Z,43.87
2019-02-04T06:06:25.422Z,37.73
2019-02-04T06:08:54.896Z,37.42
2019-02-04T06:11:24.747Z,45.00
2019-02-04T06:13:54.197Z,37.45
2019-02-04T06:16:23.709Z,45.95
2019-02-04T06:19:00.389Z,43.45
2019-02-04T06:21:24.251Z,38.75
2019-02-04T06:23:54.049Z,42.38
2019-02-04T06:26:23.558Z,34.78
2019-02-04T06:28:53.003Z,28.02
2019-02-04T06:31:22.435Z,32.42
2019-02-04T06:33:52.261Z,30.85
2019-02-04T06:36:22.079Z,32.60
2019-02-04T06:38:51.557Z,29.63
2019-02-04T06:41:21.025Z,32.78
2019-02-04T06:43:50.462Z,36.40
2019-02-04T06:46:20.356Z,32.88
2019-02-04T06:48:49.831Z,29.82
2019-02-04T06:51:19.281Z,33.83
2019-02-04T06:53:48.909Z,33.80
2019-02-04T06:56:18.377Z,36.65
2019-02-04T06:58:47.844Z,43.40
2019-02-04T07:01:17.654Z,34.78
2019-02-04T07:03:47.091Z,34.98
2019-02-04T07:06:16.535Z,41.53
2019-02-04T07:08:46.380Z,34.95
2019-02-04T07:11:15.829Z,33.35
2019-02-04T07:13:45.307Z,33.15
2019-02-04T07:16:14.765Z,39.00
2019-02-04T07:18:44.583Z,35.35
2019-02-04T07:21:14.099Z,39.83
2019-02-04T07:23:43.845Z,36.42
2019-02-04T07:26:13.293Z,32.40
2019-02-04T07:28:42.775Z,32.65
2019-02-04T07:31:12.225Z,44.05
2019-02-04T07:33:41.717Z,37.93
2019-02-04T07:36:11.170Z,39.95
2019-02-04T07:38:40.927Z,32.38
2019-02-04T07:41:10.369Z,38.20
2019-02-04T07:43:39.804Z,44.95
2019-02-04T07:46:09.301Z,42.25
2019-02-04T07:48:38.749Z,47.08
2019-02-04T07:51:08.212Z,37.38
2019-02-04T07:53:37.657Z,36.08
2019-02-04T07:56:07.089Z,33.58
2019-02-04T07:58:36.561Z,32.63
2019-02-04T08:01:05.990Z,33.10
2019-02-04T08:03:35.459Z,32.35
2019-02-04T08:06:04.906Z,31.12
2019-02-04T08:08:34.368Z,33.95
2019-02-04T08:11:03.933Z,36.60
2019-02-04T08:13:33.388Z,32.48
2019-02-04T08:16:02.939Z,28.57
2019-02-04T08:18:32.454Z,28.15
2019-02-04T08:21:02.307Z,26.80
2019-02-04T08:23:31.737Z,31.35
2019-02-04T08:26:01.540Z,22.58
2019-02-04T08:28:34.087Z,27.98
2019-02-04T08:31:03.533Z,49.77
2019-02-04T08:33:32.977Z,31.50
2019-02-04T08:36:02.497Z,30.30
2019-02-04T08:38:31.971Z,27.65
2019-02-04T08:41:01.419Z,21.00
2019-02-04T08:43:30.856Z,23.32
2019-02-04T08:46:00.317Z,27.02
2019-02-04T08:48:29.770Z,26.95
2019-02-04T08:50:59.392Z,24.47
2019-02-04T08:53:28.807Z,20.50
2019-02-04T08:55:58.270Z,17.00
2019-02-04T08:58:27.714Z,22.02
2019-02-04T09:00:57.194Z,19.42
2019-02-04T09:03:26.618Z,23.73
2019-02-04T09:05:56.473Z,22.02
2019-02-04T09:08:25.991Z,21.62
2019-02-04T09:10:55.437Z,24.87
2019-02-04T09:13:24.996Z,24.12
2019-02-04T09:15:54.501Z,22.07
2019-02-04T09:18:23.947Z,26.70
2019-02-04T09:20:53.449Z,19.80
2019-02-04T09:23:22.911Z,29.60
2019-02-04T09:25:52.370Z,27.10
2019-02-04T09:28:21.807Z,17.15
2019-02-04T09:30:51.250Z,18.85
2019-02-04T09:33:20.744Z,18.92
2019-02-04T09:35:50.195Z,21.07
2019-02-04T09:38:19.636Z,25.32
2019-02-04T09:40:49.091Z,21.33
2019-02-04T09:43:18.553Z,17.55
2019-02-04T09:45:48.051Z,22.73
2019-02-04T09:48:21.234Z,24.67
2019-02-04T09:50:57.040Z,16.32
2019-02-04T09:53:26.921Z,19.20
2019-02-04T09:55:57.111Z,23.22
2019-02-04T09:58:26.800Z,22.37
2019-02-04T10:00:56.233Z,21.62
2019-02-04T10:03:25.687Z,18.30
2019-02-04T10:05:55.239Z,26.27
2019-02-04T10:08:24.771Z,30.43
2019-02-04T10:10:54.257Z,14.53
2019-02-04T10:13:23.770Z,18.87
2019-02-04T10:15:53.340Z,17.45
2019-02-04T10:18:23.084Z,20.08
2019-02-04T10:20:52.517Z,15.88
2019-02-04T10:23:22.008Z,25.00
2019-02-04T10:25:51.716Z,20.32
2019-02-04T10:28:21.233Z,20.90
2019-02-04T10:30:50.735Z,21.45
2019-02-04T10:33:20.243Z,27.42
2019-02-04T10:35:50.410Z,23.85
2019-02-04T10:38:20.283Z,22.17
2019-02-04T10:40:49.758Z,28.27
2019-02-04T10:43:19.202Z,20.32
2019-02-04T10:45:49.027Z,27.48
2019-02-04T10:48:18.479Z,27.45
2019-02-04T10:50:47.933Z,30.40
2019-02-04T10:53:17.450Z,25.30
2019-02-04T10:55:47.235Z,30.32
2019-02-04T10:58:16.650Z,33.18
2019-02-04T11:00:46.479Z,30.23
2019-02-04T11:03:16.273Z,29.75
2019-02-04T11:05:45.785Z,27.17
2019-02-04T11:08:15.618Z,20.12
2019-02-04T11:10:45.033Z,30.97
2019-02-04T11:13:16.332Z,22.45
2019-02-04T11:15:47.453Z,33.05
2019-02-04T11:18:17.457Z,22.45
2019-02-04T11:20:57.913Z,22.67
2019-02-04T11:23:18.337Z,20.35
2019-02-04T11:25:47.941Z,15.98
2019-02-04T11:28:17.739Z,20.70
2019-02-04T11:30:58.829Z,21.12
2019-02-04T11:33:28.248Z,14.83
2019-02-04T11:35:57.700Z,21.82
2019-02-04T11:38:27.913Z,23.65
2019-02-04T11:40:58.063Z,20.95
2019-02-04T11:43:27.522Z,21.25
2019-02-04T11:45:57.001Z,12.10
2019-02-04T11:48:26.475Z,12.18
2019-02-04T11:51:08.927Z,15.45
2019-02-04T11:53:32.881Z,15.20
2019-02-04T11:55:59.294Z,15.95
2019-02-04T11:58:29.859Z,20.32
2019-02-04T12:01:00.492Z,15.00
2019-02-04T12:03:30.112Z,13.25
2019-02-04T12:05:59.542Z,14.40
2019-02-04T12:08:29.258Z,13.25
2019-02-04T12:11:26.334Z,15.10
2019-02-04T12:13:55.802Z,14.80
2019-02-04T12:16:25.282Z,17.65
2019-02-04T12:18:54.709Z,12.68
2019-02-04T12:21:24.207Z,14.05
2019-02-04T12:23:53.917Z,9.50
2019-02-04T12:26:23.353Z,14.73
2019-02-04T12:28:52.841Z,18.00
2019-02-04T12:31:22.601Z,20.08
2019-02-04T12:33:52.342Z,27.10
2019-02-04T12:36:22.196Z,12.50
2019-02-04T12:38:52.008Z,17.48
2019-02-04T12:41:21.457Z,17.37
2019-02-04T12:43:51.341Z,19.87
2019-02-04T12:46:21.562Z,23.55
2019-02-04T12:48:51.930Z,15.85
2019-02-04T12:51:32.974Z,25.80
2019-02-04T12:53:53.021Z,18.52
2019-02-04T12:56:22.611Z,19.52
2019-02-04T12:58:55.634Z,22.00
2019-02-04T13:01:23.150Z,11.78
2019-02-04T13:03:53.006Z,12.37
2019-02-04T13:06:22.817Z,11.95
2019-02-04T13:08:52.298Z,13.88
2019-02-04T13:11:21.737Z,13.03
2019-02-04T13:13:51.967Z,17.23
2019-02-04T13:16:22.051Z,15.72
2019-02-04T13:18:51.645Z,12.82
2019-02-04T13:21:22.256Z,13.65
2019-02-04T13:23:52.651Z,17.27
2019-02-04T13:26:23.019Z,19.98
2019-02-04T13:28:52.756Z,27.67
2019-02-04T13:31:22.251Z,13.13
2019-02-04T13:33:51.683Z,16.70
2019-02-04T13:36:21.792Z,12.80
2019-02-04T13:38:51.217Z,9.93
2019-02-04T13:41:21.315Z,10.95
2019-02-04T13:43:50.774Z,12.80
2019-02-04T13:46:20.225Z,11.15
2019-02-04T13:48:49.669Z,14.30
2019-02-04T13:51:19.408Z,12.28
2019-02-04T13:53:48.837Z,18.98
2019-02-04T13:56:18.308Z,18.25
2019-02-04T13:58:47.729Z,15.05
2019-02-04T14:01:17.535Z,14.45
2019-02-04T14:03:48.474Z,15.23
2019-02-04T14:06:18.273Z,11.18
2019-02-04T14:08:48.197Z,6.05
2019-02-04T14:11:17.666Z,9.65
2019-02-04T14:13:47.452Z,11.40
2019-02-04T14:16:16.904Z,14.10
2019-02-04T14:18:46.687Z,13.45
2019-02-04T14:21:16.263Z,7.12
2019-02-04T14:23:45.701Z,17.12
2019-02-04T14:26:15.137Z,11.85
2019-02-04T14:28:44.567Z,18.00
2019-02-04T14:31:14.021Z,12.80
2019-02-04T14:33:43.791Z,12.80
2019-02-04T14:36:13.602Z,15.80
2019-02-04T14:38:43.062Z,25.30
2019-02-04T14:41:12.545Z,20.55
2019-02-04T14:44:01.457Z,21.82
2019-02-04T14:46:56.065Z,23.18
2019-02-04T14:49:48.604Z,21.40
2019-02-04T14:52:57.962Z,18.62
2019-02-04T14:55:45.252Z,15.78
2019-02-04T14:58:32.497Z,23.20
2019-02-04T15:01:54.625Z,15.48
2019-02-04T15:05:14.528Z,17.40
2019-02-04T15:08:33.427Z,20.60
2019-02-04T15:11:15.650Z,19.10
2019-02-04T15:14:25.014Z,15.55
2019-02-04T15:17:34.629Z,19.65
2019-02-04T15:21:03.096Z,14.28
2019-02-04T15:23:53.546Z,20.15
2019-02-04T15:27:25.529Z,18.23
2019-02-04T15:30:10.321Z,18.60
2019-02-04T15:33:19.131Z,20.77
2019-02-04T15:36:12.779Z,19.20
2019-02-04T15:39:12.063Z,25.40
2019-02-04T15:41:57.979Z,16.50
2019-02-04T15:44:58.922Z,22.62
2019-02-04T15:47:42.537Z,18.92
2019-02-04T15:50:46.267Z,20.68
2019-02-04T15:53:15.718Z,18.55
2019-02-04T15:55:45.219Z,23.75
2019-02-04T15:58:14.653Z,21.10
2019-02-04T16:00:44.660Z,19.73
2019-02-04T16:03:14.136Z,19.95
2019-02-04T16:05:43.693Z,38.40
2019-02-04T16:08:13.144Z,125.72
2019-02-04T16:10:42.636Z,90.42
2019-02-04T16:13:12.378Z,42.40
2019-02-04T16:15:42.550Z,28.25
2019-02-04T16:18:12.147Z,33.18
2019-02-04T16:20:41.633Z,20.55
2019-02-04T16:23:11.420Z,21.17
2019-02-04T16:25:40.876Z,28.90
2019-02-04T16:28:10.571Z,45.38
2019-02-04T16:30:40.474Z,45.05
2019-02-04T16:33:10.043Z,65.83
2019-02-04T16:35:39.727Z,51.00
2019-02-04T16:38:09.189Z,43.87
2019-02-04T16:40:39.349Z,45.65
2019-02-04T16:43:08.855Z,38.50
2019-02-04T16:45:38.391Z,48.68
2019-02-04T16:48:07.873Z,55.17
2019-02-04T16:50:37.794Z,50.98
2019-02-04T16:53:10.750Z,43.95
2019-02-04T16:55:39.551Z,54.38
2019-02-04T16:58:09.400Z,57.10
2019-02-04T17:00:38.896Z,46.30
2019-02-04T17:03:08.517Z,42.03
2019-02-04T17:05:38.064Z,40.25
2019-02-04T17:08:07.951Z,36.68
2019-02-04T17:10:37.390Z,35.00
2019-02-04T17:13:07.619Z,43.65
2019-02-04T17:15:37.651Z,37.90
2019-02-04T17:18:07.100Z,32.50
2019-02-04T17:20:36.663Z,50.98
2019-02-04T17:23:08.769Z,80.50
2019-02-04T17:25:38.242Z,77.35
2019-02-04T17:28:07.984Z,87.62
2019-02-04T17:30:37.562Z,142.40
2019-02-04T17:33:07.706Z,101.90
2019-02-04T17:35:37.222Z,84.40
2019-02-04T17:38:06.811Z,85.28
2019-02-04T17:40:36.585Z,79.60
2019-02-04T17:43:06.372Z,71.62
2019-02-04T17:45:35.916Z,85.20
2019-02-04T17:48:07.007Z,86.50
2019-02-04T17:50:36.487Z,85.92
2019-02-04T17:53:06.067Z,89.97
2019-02-04T17:55:36.374Z,65.62
2019-02-04T17:58:06.608Z,61.88
2019-02-04T18:00:46.396Z,59.45
2019-02-04T18:03:16.167Z,63.90
2019-02-04T18:05:45.631Z,49.48
2019-02-04T18:08:15.694Z,55.43
2019-02-04T18:10:45.292Z,131.95
2019-02-04T18:13:14.847Z,75.72
2019-02-04T18:15:44.419Z,55.55
2019-02-04T18:18:13.869Z,52.75
2019-02-04T18:20:43.307Z,39.38
2019-02-04T18:23:12.898Z,39.85
2019-02-04T18:25:42.501Z,31.68
2019-02-04T18:28:12.166Z,34.40
2019-02-04T18:30:41.618Z,32.08
2019-02-04T18:33:11.072Z,35.17
2019-02-04T18:35:40.883Z,31.17
2019-02-04T18:38:10.422Z,34.73
2019-02-04T18:40:39.983Z,40.17
2019-02-04T18:43:09.446Z,52.35
2019-02-04T18:45:39.417Z,49.05
2019-02-04T18:48:09.179Z,34.98
2019-02-04T18:50:38.863Z,34.00
2019-02-04T18:53:08.329Z,34.75
2019-02-04T18:55:37.816Z,28.17
2019-02-04T18:58:07.313Z,22.02
2019-02-04T19:00:38.001Z,24.95
2019-02-04T19:03:17.001Z,19.62
2019-02-04T19:05:38.686Z,19.75
2019-02-04T19:08:08.142Z,17.30
2019-02-04T19:10:37.597Z,21.65
2019-02-04T19:13:07.066Z,18.42
2019-02-04T19:15:36.763Z,16.82
2019-02-04T19:18:09.423Z,18.00
2019-02-04T19:20:38.859Z,18.57
2019-02-04T19:23:08.404Z,23.67
2019-02-04T19:25:37.989Z,19.87
2019-02-04T19:28:07.927Z,27.85
2019-02-04T19:30:44.110Z,18.42
2019-02-04T19:33:13.785Z,21.97
2019-02-04T19:35:43.614Z,21.50
2019-02-04T19:38:13.704Z,21.17
2019-02-04T19:40:43.667Z,25.77
2019-02-04T19:43:14.263Z,17.48
2019-02-04T19:45:45.049Z,20.12
2019-02-04T19:48:15.420Z,16.50
2019-02-04T19:50:45.900Z,14.45
2019-02-04T19:53:16.000Z,16.73
2019-02-04T19:55:45.947Z,12.25
2019-02-04T19:58:17.094Z,17.82
2019-02-04T20:00:47.544Z,13.40
2019-02-04T20:03:17.370Z,12.70
2019-02-04T20:05:46.866Z,11.80
2019-02-04T20:08:16.356Z,13.32
2019-02-04T20:10:45.805Z,20.48
2019-02-04T20:13:15.717Z,16.87
2019-02-04T20:15:45.690Z,23.80
2019-02-04T20:18:15.136Z,16.30
2019-02-04T20:20:44.587Z,21.00
2019-02-04T20:23:14.063Z,28.00
2019-02-04T20:25:43.582Z,24.80
2019-02-04T20:28:13.597Z,22.98
2019-02-04T20:30:46.131Z,23.52
2019-02-04T20:33:14.526Z,22.30
2019-02-04T20:35:44.381Z,19.10
2019-02-04T20:38:13.955Z,19.00
2019-02-04T20:40:43.904Z,18.52
2019-02-04T20:43:13.707Z,13.43
2019-02-04T20:45:43.487Z,19.50
2019-02-04T20:48:14.837Z,23.90
2019-02-04T20:50:45.806Z,19.48
2019-02-04T20:53:15.332Z,18.12
2019-02-04T20:55:45.006Z,14.40
2019-02-04T20:58:14.445Z,12.03
2019-02-04T21:00:44.080Z,12.35
2019-02-04T21:03:13.549Z,17.35
2019-02-04T21:05:43.002Z,8.93
2019-02-04T21:08:12.493Z,12.55
2019-02-04T21:10:41.961Z,10.45
2019-02-04T21:13:11.485Z,8.68
2019-02-04T21:15:40.963Z,14.83
2019-02-04T21:18:10.465Z,20.72
2019-02-04T21:20:40.010Z,16.40
2019-02-04T21:23:09.535Z,9.50
2019-02-04T21:25:38.986Z,14.98
2019-02-04T21:28:08.483Z,11.85
2019-02-04T21:30:40.780Z,11.12
2019-02-04T21:33:10.714Z,11.80
2019-02-04T21:35:40.783Z,12.20
2019-02-04T21:38:10.526Z,11.00
2019-02-04T21:40:40.009Z,7.30
2019-02-04T21:43:09.432Z,10.80
2019-02-04T21:45:39.023Z,12.23
2019-02-04T21:48:08.828Z,10.53
2019-02-04T21:50:38.329Z,8.13
2019-02-04T21:53:08.254Z,12.63
2019-02-04T21:55:37.715Z,8.40
2019-02-04T21:58:07.561Z,8.45
2019-02-04T22:00:39.067Z,10.50
2019-02-04T22:03:08.595Z,11.80
2019-02-04T22:05:38.053Z,8.05
2019-02-04T22:08:08.125Z,6.53
2019-02-04T22:10:37.633Z,8.45
2019-02-04T22:13:07.124Z,12.20
2019-02-04T22:15:36.945Z,10.72
2019-02-04T22:18:07.025Z,14.15
2019-02-04T22:20:37.086Z,8.98
2019-02-04T22:23:06.892Z,10.40
2019-02-04T22:25:36.314Z,6.70
2019-02-04T22:28:06.439Z,13.32
2019-02-04T22:30:36.040Z,9.73
2019-02-04T22:33:05.662Z,6.65
2019-02-04T22:35:35.105Z,7.67
2019-02-04T22:38:04.815Z,7.83
2019-02-04T22:40:34.295Z,15.83
2019-02-04T22:43:03.731Z,8.63
2019-02-04T22:45:33.233Z,13.43
2019-02-04T22:48:02.683Z,11.73
2019-02-04T22:50:32.695Z,12.03
2019-02-04T22:53:02.710Z,17.17
2019-02-04T22:55:32.822Z,9.65
2019-02-04T22:58:02.579Z,12.00
2019-02-04T23:00:46.676Z,8.83
2019-02-04T23:03:17.185Z,16.12
2019-02-04T23:05:46.735Z,11.85
2019-02-04T23:08:16.231Z,9.60
2019-02-04T23:10:46.129Z,7.60
2019-02-04T23:13:15.594Z,10.48
2019-02-04T23:15:45.017Z,13.70
2019-02-04T23:18:14.877Z,8.40
2019-02-04T23:20:44.363Z,7.67
2019-02-04T23:23:14.291Z,11.18
2019-02-04T23:25:43.972Z,9.60
2019-02-04T23:28:13.539Z,7.65
2019-02-04T23:30:42.993Z,8.80
2019-02-04T23:33:12.806Z,9.60
2019-02-04T23:35:42.323Z,11.55
2019-02-04T23:38:11.758Z,11.88
2019-02-04T23:40:41.234Z,9.53
2019-02-04T23:43:10.670Z,7.87
2019-02-04T23:45:40.315Z,8.18
2019-02-04T23:48:10.166Z,14.40
2019-02-04T23:50:39.747Z,9.63
2019-02-04T23:53:09.657Z,9.58
2019-02-04T23:55:39.075Z,9.23
2019-02-04T23:58:08.575Z,9.43
